Aviation Digital Data Service (ADDS)

Output produced by METARs form (2003 UTC 10 February 2016)
found at http://aviationweather.gov/adds/metars/
 
KPHF 101739Z 1018/1118 27010KT P6SM SCT050 
     FM102100 27010KT P6SM BKN080 
     FM110500 28011KT P6SM SKC 
     FM111300 29015KT P6SM SKC